createdAt,value
2022-09-14T00:01:44.785Z,0
2022-09-14T00:08:04.723Z,0
2022-09-14T00:14:27.870Z,0
2022-09-14T00:20:47.729Z,0
2022-09-14T00:27:10.776Z,0
2022-09-14T00:33:30.828Z,0
2022-09-14T00:39:53.815Z,0
2022-09-14T00:46:13.739Z,0
2022-09-14T00:52:36.745Z,0
2022-09-14T00:58:56.759Z,0
2022-09-14T01:05:19.739Z,0
2022-09-14T01:11:39.941Z,0
2022-09-14T01:18:02.719Z,0
2022-09-14T01:24:22.761Z,0
2022-09-14T01:30:45.742Z,0
2022-09-14T01:37:05.735Z,0
2022-09-14T01:43:28.736Z,0
2022-09-14T01:49:48.745Z,0
2022-09-14T01:56:11.756Z,0
2022-09-14T02:02:31.776Z,0
2022-09-14T02:08:54.786Z,0
2022-09-14T02:15:14.798Z,0
2022-09-14T02:21:37.728Z,0
2022-09-14T02:27:57.763Z,0
2022-09-14T02:34:20.725Z,0
2022-09-14T02:40:40.758Z,0
2022-09-14T02:47:03.822Z,0
2022-09-14T02:53:23.761Z,0
2022-09-14T02:59:46.725Z,0
2022-09-14T03:06:06.774Z,0
2022-09-14T03:12:29.723Z,0
2022-09-14T03:18:49.862Z,0
2022-09-14T03:25:12.786Z,0
2022-09-14T03:31:32.764Z,0
2022-09-14T03:37:55.761Z,0
2022-09-14T03:44:15.814Z,0
2022-09-14T03:50:38.760Z,0
2022-09-14T03:56:58.719Z,0
2022-09-14T04:03:21.859Z,0
2022-09-14T04:19:28.747Z,0
2022-09-14T04:25:48.745Z,0
2022-09-14T04:32:11.764Z,0
2022-09-14T04:38:31.766Z,0
2022-09-14T04:44:54.719Z,0
2022-09-14T04:51:14.782Z,0
2022-09-14T04:57:37.752Z,0
2022-09-14T05:03:57.720Z,0
2022-09-14T05:10:20.764Z,0
2022-09-14T05:16:40.748Z,0
2022-09-14T05:23:03.756Z,0
2022-09-14T05:29:23.729Z,0
2022-09-14T05:35:46.869Z,0
2022-09-14T05:42:06.740Z,0
2022-09-14T05:48:29.735Z,0
2022-09-14T05:54:49.780Z,0
2022-09-14T06:01:12.729Z,0
2022-09-14T06:07:32.762Z,0
2022-09-14T06:13:55.747Z,0
2022-09-14T06:20:15.737Z,0
2022-09-14T06:26:38.754Z,0
2022-09-14T06:32:58.829Z,0
2022-09-14T06:39:21.772Z,0
2022-09-14T06:45:41.726Z,0
2022-09-14T06:52:04.751Z,0
2022-09-14T06:58:24.759Z,5.62
2022-09-14T07:04:47.732Z,0
2022-09-14T07:11:07.783Z,5.62
2022-09-14T07:17:30.723Z,5.62
2022-09-14T07:23:50.778Z,11.25
2022-09-14T07:30:13.782Z,11.25
2022-09-14T07:36:34.926Z,11.25
2022-09-14T07:42:57.683Z,11.25
2022-09-14T07:49:16.750Z,11.25
2022-09-14T07:55:39.767Z,16.88
2022-09-14T08:01:59.809Z,16.88
2022-09-14T08:08:22.857Z,33.75
2022-09-14T08:14:42.760Z,33.75
2022-09-14T08:21:05.744Z,39.38
2022-09-14T08:27:25.788Z,33.75
2022-09-14T08:33:48.736Z,28.12
2022-09-14T08:40:08.820Z,16.88
2022-09-14T08:46:31.825Z,45
2022-09-14T08:52:51.716Z,39.38
2022-09-14T08:59:14.764Z,39.38
2022-09-14T09:05:34.783Z,22.5
2022-09-14T09:11:57.748Z,28.12
2022-09-14T09:18:17.766Z,28.12
2022-09-14T09:24:40.751Z,28.12
2022-09-14T09:31:00.770Z,28.12
2022-09-14T09:37:23.738Z,22.5
2022-09-14T09:43:49.538Z,16.88
2022-09-14T09:50:06.765Z,5.62
2022-09-14T10:05:56.668Z,22.5
2022-09-14T10:12:16.752Z,67.5
2022-09-14T10:18:39.798Z,33.75
2022-09-14T10:24:59.795Z,56.25
2022-09-14T10:31:22.778Z,22.5
2022-09-14T10:37:42.773Z,22.5
2022-09-14T10:44:05.845Z,16.88
2022-09-14T10:50:25.724Z,16.88
2022-09-14T10:56:48.773Z,28.12
2022-09-14T11:03:08.808Z,11.25
2022-09-14T11:09:31.815Z,5.62
2022-09-14T11:15:51.818Z,11.25
2022-09-14T11:22:14.862Z,16.88
2022-09-14T11:28:34.747Z,33.75
2022-09-14T11:34:57.744Z,39.38
2022-09-14T11:41:17.875Z,50.62
2022-09-14T11:47:40.736Z,56.25
2022-09-14T11:54:01.812Z,45
2022-09-14T12:00:24.891Z,61.88
2022-09-14T12:06:44.727Z,50.62
2022-09-14T12:13:07.937Z,73.12
2022-09-14T12:19:27.981Z,67.5
2022-09-14T12:25:50.776Z,45
2022-09-14T12:32:10.743Z,90
2022-09-14T12:38:33.789Z,45
2022-09-14T12:44:53.750Z,39.38
2022-09-14T12:51:16.977Z,39.38
2022-09-14T12:57:36.821Z,28.12
2022-09-14T13:03:59.746Z,22.5
2022-09-14T13:10:19.776Z,28.12
2022-09-14T13:16:42.754Z,11.25
2022-09-14T13:23:02.797Z,16.88
2022-09-14T13:29:25.743Z,16.88
2022-09-14T13:35:46.040Z,16.88
2022-09-14T13:42:08.771Z,16.88
2022-09-14T13:48:28.755Z,28.12
2022-09-14T13:54:51.791Z,16.88
2022-09-14T14:01:11.853Z,22.5
2022-09-14T14:07:34.767Z,16.88
2022-09-14T14:13:54.834Z,33.75
2022-09-14T14:20:17.765Z,56.25
2022-09-14T14:26:37.887Z,22.5
2022-09-14T14:33:00.783Z,5.62
2022-09-14T14:39:20.790Z,0
2022-09-14T14:45:43.829Z,0
2022-09-14T14:52:03.827Z,0
2022-09-14T14:58:26.781Z,11.25
2022-09-14T15:04:46.749Z,0
2022-09-14T15:11:09.828Z,5.62
2022-09-14T15:35:09.760Z,5.62
2022-09-14T15:41:29.736Z,5.62
2022-09-14T15:47:52.847Z,5.62
2022-09-14T15:54:12.755Z,0
2022-09-14T16:00:35.841Z,0
2022-09-14T16:06:55.769Z,0
2022-09-14T16:13:18.790Z,0
2022-09-14T16:19:38.879Z,0
2022-09-14T16:26:01.785Z,5.62
2022-09-14T16:32:21.866Z,5.62
2022-09-14T16:38:44.828Z,5.62
2022-09-14T16:45:04.752Z,5.62
2022-09-14T16:51:27.880Z,0
2022-09-14T16:57:47.780Z,0
2022-09-14T17:04:10.818Z,0
2022-09-14T17:10:30.860Z,0
2022-09-14T17:16:53.773Z,0
2022-09-14T17:23:13.899Z,0
2022-09-14T17:29:36.861Z,0
2022-09-14T17:35:56.793Z,0
2022-09-14T17:42:19.778Z,0
2022-09-14T17:48:39.905Z,0
2022-09-14T17:55:02.841Z,0
2022-09-14T18:01:22.774Z,0
2022-09-14T18:07:45.810Z,0
2022-09-14T18:14:05.882Z,0
2022-09-14T18:20:28.764Z,0
2022-09-14T18:26:49.102Z,0
2022-09-14T18:33:11.847Z,0
2022-09-14T18:39:31.811Z,0
2022-09-14T18:45:54.994Z,0
2022-09-14T18:52:14.766Z,0
2022-09-14T18:58:37.831Z,0
2022-09-14T19:04:57.817Z,0
2022-09-14T19:11:20.779Z,0
2022-09-14T19:17:40.777Z,0
2022-09-14T19:24:03.790Z,0
2022-09-14T19:30:23.806Z,0
2022-09-14T19:36:46.761Z,0
2022-09-14T19:43:06.826Z,0
2022-09-14T19:49:30.117Z,0
2022-09-14T19:55:49.772Z,0
2022-09-14T20:02:13.019Z,0
2022-09-14T20:08:32.822Z,0
2022-09-14T20:14:55.827Z,0
2022-09-14T20:38:37.683Z,0
2022-09-14T20:44:57.726Z,0
2022-09-14T20:51:20.875Z,0
2022-09-14T20:57:40.885Z,0
2022-09-14T21:04:03.798Z,0
2022-09-14T21:10:27.258Z,0
2022-09-14T21:16:46.914Z,0
2022-09-14T21:23:06.743Z,0
2022-09-14T21:29:29.803Z,0
2022-09-14T21:35:49.868Z,0
2022-09-14T21:42:12.809Z,0
2022-09-14T21:48:32.794Z,0
2022-09-14T21:54:55.864Z,0
2022-09-14T22:20:26.782Z,0
2022-09-14T22:26:46.733Z,0
2022-09-14T22:33:09.820Z,0
2022-09-14T22:39:29.921Z,0
2022-09-14T22:45:52.883Z,0
2022-09-14T22:52:12.843Z,0
2022-09-14T22:58:35.884Z,0
2022-09-14T23:04:55.817Z,0
2022-09-14T23:11:18.822Z,0
2022-09-14T23:17:38.860Z,0
2022-09-14T23:24:01.815Z,0
2022-09-14T23:30:21.820Z,0
2022-09-14T23:36:44.975Z,0
2022-09-14T23:43:04.871Z,0
2022-09-14T23:49:27.743Z,0
2022-09-14T23:55:47.838Z,0
